sensor_id;sensor_type;location;lat;lon;timestamp;P1;durP1;ratioP1;P2;durP2;ratioP2
1879;SDS011;49285;49.002;8.390;2024-03-08T00:01:49;23.50;;;16.83;;
1879;SDS011;49285;49.002;8.390;2024-03-08T00:04:14;21.87;;;16.90;;
1879;SDS011;49285;49.002;8.390;2024-03-08T00:06:40;27.13;;;19.13;;
1879;SDS011;49285;49.002;8.390;2024-03-08T00:09:06;26.10;;;17.30;;
1879;SDS011;49285;49.002;8.390;2024-03-08T00:11:33;26.90;;;18.37;;
1879;SDS011;49285;49.002;8.390;2024-03-08T00:13:59;22.83;;;17.93;;
1879;SDS011;49285;49.002;8.390;2024-03-08T00:16:25;25.33;;;18.60;;
1879;SDS011;49285;49.002;8.390;2024-03-08T00:18:51;27.50;;;17.50;;
1879;SDS011;49285;49.002;8.390;2024-03-08T00:21:16;29.40;;;19.80;;
1879;SDS011;49285;49.002;8.390;2024-03-08T00:23:42;26.30;;;18.27;;
1879;SDS011;49285;49.002;8.390;2024-03-08T00:26:08;26.00;;;17.83;;
1879;SDS011;49285;49.002;8.390;2024-03-08T00:28:33;24.57;;;17.40;;
1879;SDS011;49285;49.002;8.390;2024-03-08T00:30:59;29.80;;;17.53;;
1879;SDS011;49285;49.002;8.390;2024-03-08T00:33:25;26.57;;;17.60;;
1879;SDS011;49285;49.002;8.390;2024-03-08T00:35:52;28.80;;;18.13;;
1879;SDS011;49285;49.002;8.390;2024-03-08T00:38:18;24.73;;;17.87;;
1879;SDS011;49285;49.002;8.390;2024-03-08T00:40:44;24.00;;;17.33;;
1879;SDS011;49285;49.002;8.390;2024-03-08T00:43:10;25.23;;;18.30;;
1879;SDS011;49285;49.002;8.390;2024-03-08T00:45:35;25.70;;;18.37;;
1879;SDS011;49285;49.002;8.390;2024-03-08T00:48:02;27.23;;;18.80;;
1879;SDS011;49285;49.002;8.390;2024-03-08T00:50:28;27.47;;;18.73;;
1879;SDS011;49285;49.002;8.390;2024-03-08T00:52:54;24.17;;;17.67;;
1879;SDS011;49285;49.002;8.390;2024-03-08T00:55:19;27.83;;;18.53;;
1879;SDS011;49285;49.002;8.390;2024-03-08T00:57:45;22.50;;;16.70;;
1879;SDS011;49285;49.002;8.390;2024-03-08T01:00:11;25.00;;;17.90;;
1879;SDS011;49285;49.002;8.390;2024-03-08T01:02:40;22.27;;;16.50;;
1879;SDS011;49285;49.002;8.390;2024-03-08T01:05:06;25.20;;;18.07;;
1879;SDS011;49285;49.002;8.390;2024-03-08T01:07:33;25.43;;;18.20;;
1879;SDS011;49285;49.002;8.390;2024-03-08T01:10:00;26.63;;;18.97;;
1879;SDS011;49285;49.002;8.390;2024-03-08T01:12:28;26.47;;;18.13;;
1879;SDS011;49285;49.002;8.390;2024-03-08T01:14:54;24.80;;;16.83;;
1879;SDS011;49285;49.002;8.390;2024-03-08T01:17:21;27.13;;;17.87;;
1879;SDS011;49285;49.002;8.390;2024-03-08T01:19:46;24.67;;;17.63;;
1879;SDS011;49285;49.002;8.390;2024-03-08T01:22:12;25.40;;;17.67;;
1879;SDS011;49285;49.002;8.390;2024-03-08T01:24:37;29.00;;;18.70;;
1879;SDS011;49285;49.002;8.390;2024-03-08T01:27:03;28.67;;;18.37;;
1879;SDS011;49285;49.002;8.390;2024-03-08T01:29:29;24.87;;;17.57;;
1879;SDS011;49285;49.002;8.390;2024-03-08T01:31:55;25.00;;;18.07;;
1879;SDS011;49285;49.002;8.390;2024-03-08T01:34:21;28.20;;;18.40;;
1879;SDS011;49285;49.002;8.390;2024-03-08T01:36:47;27.47;;;18.03;;
1879;SDS011;49285;49.002;8.390;2024-03-08T01:39:13;29.63;;;20.70;;
1879;SDS011;49285;49.002;8.390;2024-03-08T01:41:39;27.83;;;17.90;;
1879;SDS011;49285;49.002;8.390;2024-03-08T01:44:05;27.17;;;19.23;;
1879;SDS011;49285;49.002;8.390;2024-03-08T01:46:32;27.87;;;18.00;;
1879;SDS011;49285;49.002;8.390;2024-03-08T01:48:59;27.40;;;18.57;;
1879;SDS011;49285;49.002;8.390;2024-03-08T01:51:28;26.83;;;17.93;;
1879;SDS011;49285;49.002;8.390;2024-03-08T01:53:54;29.67;;;18.60;;
1879;SDS011;49285;49.002;8.390;2024-03-08T01:56:20;27.90;;;17.73;;
1879;SDS011;49285;49.002;8.390;2024-03-08T01:58:46;26.30;;;18.47;;
1879;SDS011;49285;49.002;8.390;2024-03-08T02:01:12;26.90;;;18.40;;
1879;SDS011;49285;49.002;8.390;2024-03-08T02:03:42;26.60;;;16.77;;
1879;SDS011;49285;49.002;8.390;2024-03-08T02:06:11;28.23;;;18.23;;
1879;SDS011;49285;49.002;8.390;2024-03-08T02:08:39;26.43;;;19.30;;
1879;SDS011;49285;49.002;8.390;2024-03-08T02:11:06;26.80;;;17.50;;
1879;SDS011;49285;49.002;8.390;2024-03-08T02:13:32;27.33;;;18.60;;
1879;SDS011;49285;49.002;8.390;2024-03-08T02:15:59;24.40;;;17.77;;
1879;SDS011;49285;49.002;8.390;2024-03-08T02:18:26;28.17;;;18.80;;
1879;SDS011;49285;49.002;8.390;2024-03-08T02:20:54;27.13;;;19.03;;
1879;SDS011;49285;49.002;8.390;2024-03-08T02:23:24;24.50;;;18.57;;
1879;SDS011;49285;49.002;8.390;2024-03-08T02:25:50;30.53;;;19.30;;
1879;SDS011;49285;49.002;8.390;2024-03-08T02:28:16;25.07;;;18.50;;
1879;SDS011;49285;49.002;8.390;2024-03-08T02:30:45;27.80;;;18.00;;
1879;SDS011;49285;49.002;8.390;2024-03-08T02:33:13;30.57;;;18.20;;
1879;SDS011;49285;49.002;8.390;2024-03-08T02:35:45;28.83;;;18.90;;
1879;SDS011;49285;49.002;8.390;2024-03-08T02:38:13;27.37;;;18.93;;
1879;SDS011;49285;49.002;8.390;2024-03-08T02:40:41;27.23;;;18.40;;
1879;SDS011;49285;49.002;8.390;2024-03-08T02:43:08;32.10;;;19.10;;
1879;SDS011;49285;49.002;8.390;2024-03-08T02:45:34;27.90;;;18.40;;
1879;SDS011;49285;49.002;8.390;2024-03-08T02:48:00;27.80;;;18.87;;
1879;SDS011;49285;49.002;8.390;2024-03-08T02:50:25;25.73;;;18.20;;
1879;SDS011;49285;49.002;8.390;2024-03-08T02:52:51;25.67;;;17.63;;
1879;SDS011;49285;49.002;8.390;2024-03-08T02:55:16;24.47;;;17.57;;
1879;SDS011;49285;49.002;8.390;2024-03-08T02:57:42;27.20;;;19.67;;
1879;SDS011;49285;49.002;8.390;2024-03-08T03:00:12;24.17;;;18.30;;
1879;SDS011;49285;49.002;8.390;2024-03-08T03:02:38;25.87;;;16.97;;
1879;SDS011;49285;49.002;8.390;2024-03-08T03:05:04;30.10;;;18.90;;
1879;SDS011;49285;49.002;8.390;2024-03-08T03:07:33;28.50;;;19.93;;
1879;SDS011;49285;49.002;8.390;2024-03-08T03:10:00;22.63;;;17.27;;
1879;SDS011;49285;49.002;8.390;2024-03-08T03:12:27;25.40;;;17.30;;
1879;SDS011;49285;49.002;8.390;2024-03-08T03:14:53;29.00;;;17.50;;
1879;SDS011;49285;49.002;8.390;2024-03-08T03:17:18;26.23;;;18.43;;
1879;SDS011;49285;49.002;8.390;2024-03-08T03:19:45;25.83;;;18.00;;
1879;SDS011;49285;49.002;8.390;2024-03-08T03:22:11;24.40;;;17.97;;
1879;SDS011;49285;49.002;8.390;2024-03-08T03:24:37;26.60;;;17.27;;
1879;SDS011;49285;49.002;8.390;2024-03-08T03:27:07;26.13;;;17.90;;
1879;SDS011;49285;49.002;8.390;2024-03-08T03:29:36;28.37;;;18.70;;
1879;SDS011;49285;49.002;8.390;2024-03-08T03:32:03;23.23;;;17.23;;
1879;SDS011;49285;49.002;8.390;2024-03-08T03:34:29;25.73;;;18.13;;
1879;SDS011;49285;49.002;8.390;2024-03-08T03:36:54;24.90;;;17.70;;
1879;SDS011;49285;49.002;8.390;2024-03-08T03:39:20;27.43;;;17.80;;
1879;SDS011;49285;49.002;8.390;2024-03-08T03:41:47;26.33;;;17.23;;
1879;SDS011;49285;49.002;8.390;2024-03-08T03:44:17;29.67;;;17.97;;
1879;SDS011;49285;49.002;8.390;2024-03-08T03:46:43;25.80;;;16.80;;
1879;SDS011;49285;49.002;8.390;2024-03-08T03:49:12;23.80;;;16.60;;
1879;SDS011;49285;49.002;8.390;2024-03-08T03:51:37;24.90;;;17.17;;
1879;SDS011;49285;49.002;8.390;2024-03-08T03:54:03;27.13;;;18.67;;
1879;SDS011;49285;49.002;8.390;2024-03-08T03:56:29;27.43;;;18.00;;
1879;SDS011;49285;49.002;8.390;2024-03-08T03:58:55;25.13;;;17.67;;
1879;SDS011;49285;49.002;8.390;2024-03-08T04:01:21;23.53;;;16.00;;
1879;SDS011;49285;49.002;8.390;2024-03-08T04:03:47;25.27;;;17.30;;
1879;SDS011;49285;49.002;8.390;2024-03-08T04:06:12;25.47;;;18.10;;
1879;SDS011;49285;49.002;8.390;2024-03-08T04:08:39;25.33;;;17.57;;
1879;SDS011;49285;49.002;8.390;2024-03-08T04:11:05;24.37;;;17.70;;
1879;SDS011;49285;49.002;8.390;2024-03-08T04:13:30;27.53;;;18.20;;
1879;SDS011;49285;49.002;8.390;2024-03-08T04:15:56;26.87;;;17.97;;
1879;SDS011;49285;49.002;8.390;2024-03-08T04:18:21;25.27;;;17.87;;
1879;SDS011;49285;49.002;8.390;2024-03-08T04:20:47;24.33;;;17.50;;
1879;SDS011;49285;49.002;8.390;2024-03-08T04:23:13;27.40;;;18.30;;
1879;SDS011;49285;49.002;8.390;2024-03-08T04:25:38;25.47;;;16.50;;
1879;SDS011;49285;49.002;8.390;2024-03-08T04:28:04;27.13;;;16.63;;
1879;SDS011;49285;49.002;8.390;2024-03-08T04:30:29;27.37;;;17.87;;
1879;SDS011;49285;49.002;8.390;2024-03-08T04:32:55;27.93;;;18.20;;
1879;SDS011;49285;49.002;8.390;2024-03-08T04:35:21;27.60;;;17.83;;
1879;SDS011;49285;49.002;8.390;2024-03-08T04:37:46;27.37;;;18.40;;
1879;SDS011;49285;49.002;8.390;2024-03-08T04:40:12;24.10;;;16.40;;
1879;SDS011;49285;49.002;8.390;2024-03-08T04:42:38;27.47;;;16.87;;
1879;SDS011;49285;49.002;8.390;2024-03-08T04:45:05;21.90;;;16.47;;
1879;SDS011;49285;49.002;8.390;2024-03-08T04:47:33;27.00;;;16.20;;
1879;SDS011;49285;49.002;8.390;2024-03-08T04:49:58;25.07;;;16.37;;
1879;SDS011;49285;49.002;8.390;2024-03-08T04:52:24;24.00;;;16.17;;
1879;SDS011;49285;49.002;8.390;2024-03-08T04:54:50;24.77;;;15.30;;
1879;SDS011;49285;49.002;8.390;2024-03-08T04:57:16;24.13;;;15.90;;
1879;SDS011;49285;49.002;8.390;2024-03-08T04:59:43;20.90;;;14.60;;
1879;SDS011;49285;49.002;8.390;2024-03-08T05:02:09;29.03;;;18.20;;
1879;SDS011;49285;49.002;8.390;2024-03-08T05:04:34;25.07;;;17.60;;
1879;SDS011;49285;49.002;8.390;2024-03-08T05:07:00;28.27;;;18.13;;
1879;SDS011;49285;49.002;8.390;2024-03-08T05:09:29;25.60;;;17.07;;
1879;SDS011;49285;49.002;8.390;2024-03-08T05:11:56;23.77;;;16.47;;
1879;SDS011;49285;49.002;8.390;2024-03-08T05:14:24;26.03;;;17.00;;
1879;SDS011;49285;49.002;8.390;2024-03-08T05:16:50;25.20;;;17.97;;
1879;SDS011;49285;49.002;8.390;2024-03-08T05:19:16;24.83;;;16.70;;
1879;SDS011;49285;49.002;8.390;2024-03-08T05:21:49;25.87;;;16.73;;
1879;SDS011;49285;49.002;8.390;2024-03-08T05:24:15;25.17;;;16.37;;
1879;SDS011;49285;49.002;8.390;2024-03-08T05:26:41;25.17;;;17.03;;
1879;SDS011;49285;49.002;8.390;2024-03-08T05:29:07;21.70;;;15.63;;
1879;SDS011;49285;49.002;8.390;2024-03-08T05:31:38;23.37;;;16.67;;
1879;SDS011;49285;49.002;8.390;2024-03-08T05:34:14;25.17;;;17.03;;
1879;SDS011;49285;49.002;8.390;2024-03-08T05:36:41;24.10;;;16.53;;
1879;SDS011;49285;49.002;8.390;2024-03-08T05:39:09;27.20;;;17.20;;
1879;SDS011;49285;49.002;8.390;2024-03-08T05:41:36;24.23;;;16.23;;
1879;SDS011;49285;49.002;8.390;2024-03-08T05:44:03;25.53;;;17.53;;
1879;SDS011;49285;49.002;8.390;2024-03-08T05:46:28;27.23;;;17.50;;
1879;SDS011;49285;49.002;8.390;2024-03-08T05:48:55;24.17;;;16.60;;
1879;SDS011;49285;49.002;8.390;2024-03-08T05:51:20;28.47;;;16.70;;
1879;SDS011;49285;49.002;8.390;2024-03-08T05:53:49;23.87;;;16.70;;
1879;SDS011;49285;49.002;8.390;2024-03-08T05:56:14;27.07;;;17.20;;
1879;SDS011;49285;49.002;8.390;2024-03-08T05:58:40;24.60;;;16.40;;
1879;SDS011;49285;49.002;8.390;2024-03-08T06:01:05;23.50;;;16.37;;
1879;SDS011;49285;49.002;8.390;2024-03-08T06:03:33;25.80;;;16.87;;
1879;SDS011;49285;49.002;8.390;2024-03-08T06:06:01;26.83;;;17.10;;
1879;SDS011;49285;49.002;8.390;2024-03-08T06:08:27;24.27;;;16.80;;
1879;SDS011;49285;49.002;8.390;2024-03-08T06:10:55;25.00;;;16.43;;
1879;SDS011;49285;49.002;8.390;2024-03-08T06:13:21;22.10;;;15.17;;
1879;SDS011;49285;49.002;8.390;2024-03-08T06:15:46;22.53;;;15.40;;
1879;SDS011;49285;49.002;8.390;2024-03-08T06:18:12;28.37;;;17.77;;
1879;SDS011;49285;49.002;8.390;2024-03-08T06:20:37;26.80;;;16.57;;
1879;SDS011;49285;49.002;8.390;2024-03-08T06:23:03;23.63;;;16.77;;
1879;SDS011;49285;49.002;8.390;2024-03-08T06:25:29;27.03;;;19.63;;
1879;SDS011;49285;49.002;8.390;2024-03-08T06:27:54;26.03;;;17.90;;
1879;SDS011;49285;49.002;8.390;2024-03-08T06:30:20;25.73;;;16.93;;
1879;SDS011;49285;49.002;8.390;2024-03-08T06:32:46;20.87;;;14.87;;
1879;SDS011;49285;49.002;8.390;2024-03-08T06:35:11;28.90;;;17.30;;
1879;SDS011;49285;49.002;8.390;2024-03-08T06:37:37;28.43;;;16.30;;
1879;SDS011;49285;49.002;8.390;2024-03-08T06:40:03;25.57;;;18.03;;
1879;SDS011;49285;49.002;8.390;2024-03-08T06:42:29;22.90;;;16.07;;
1879;SDS011;49285;49.002;8.390;2024-03-08T06:45:00;23.27;;;16.37;;
1879;SDS011;49285;49.002;8.390;2024-03-08T06:47:30;25.20;;;17.57;;
1879;SDS011;49285;49.002;8.390;2024-03-08T06:49:56;26.20;;;17.33;;
1879;SDS011;49285;49.002;8.390;2024-03-08T06:52:22;25.83;;;16.80;;
1879;SDS011;49285;49.002;8.390;2024-03-08T06:54:48;25.27;;;16.53;;
1879;SDS011;49285;49.002;8.390;2024-03-08T06:57:14;26.93;;;17.53;;
1879;SDS011;49285;49.002;8.390;2024-03-08T06:59:41;23.97;;;16.47;;
1879;SDS011;49285;49.002;8.390;2024-03-08T07:02:07;23.97;;;16.47;;
1879;SDS011;49285;49.002;8.390;2024-03-08T07:04:34;21.50;;;15.43;;
1879;SDS011;49285;49.002;8.390;2024-03-08T07:07:03;29.07;;;17.90;;
1879;SDS011;49285;49.002;8.390;2024-03-08T07:09:29;23.50;;;17.13;;
1879;SDS011;49285;49.002;8.390;2024-03-08T07:11:54;27.87;;;18.40;;
1879;SDS011;49285;49.002;8.390;2024-03-08T07:14:23;29.23;;;17.50;;
1879;SDS011;49285;49.002;8.390;2024-03-08T07:16:49;24.70;;;17.30;;
1879;SDS011;49285;49.002;8.390;2024-03-08T07:19:16;26.00;;;18.00;;
1879;SDS011;49285;49.002;8.390;2024-03-08T07:21:42;26.27;;;18.33;;
1879;SDS011;49285;49.002;8.390;2024-03-08T07:24:09;28.83;;;17.00;;
1879;SDS011;49285;49.002;8.390;2024-03-08T07:26:54;25.83;;;16.63;;
1879;SDS011;49285;49.002;8.390;2024-03-08T07:29:20;26.17;;;16.83;;
1879;SDS011;49285;49.002;8.390;2024-03-08T07:31:47;26.27;;;18.40;;
1879;SDS011;49285;49.002;8.390;2024-03-08T07:34:21;25.07;;;17.43;;
1879;SDS011;49285;49.002;8.390;2024-03-08T07:36:47;24.97;;;17.37;;
1879;SDS011;49285;49.002;8.390;2024-03-08T07:39:12;27.53;;;19.13;;
1879;SDS011;49285;49.002;8.390;2024-03-08T07:41:38;22.60;;;17.50;;
1879;SDS011;49285;49.002;8.390;2024-03-08T07:44:07;29.17;;;18.10;;
1879;SDS011;49285;49.002;8.390;2024-03-08T07:46:32;24.07;;;16.67;;
1879;SDS011;49285;49.002;8.390;2024-03-08T07:49:02;29.60;;;17.40;;
1879;SDS011;49285;49.002;8.390;2024-03-08T07:51:28;28.20;;;17.17;;
1879;SDS011;49285;49.002;8.390;2024-03-08T07:53:54;25.70;;;18.13;;
1879;SDS011;49285;49.002;8.390;2024-03-08T07:56:20;30.43;;;20.30;;
1879;SDS011;49285;49.002;8.390;2024-03-08T07:58:46;24.80;;;17.63;;
1879;SDS011;49285;49.002;8.390;2024-03-08T08:01:16;29.97;;;17.90;;
1879;SDS011;49285;49.002;8.390;2024-03-08T08:03:43;25.40;;;17.23;;
1879;SDS011;49285;49.002;8.390;2024-03-08T08:06:08;29.43;;;18.40;;
1879;SDS011;49285;49.002;8.390;2024-03-08T08:08:34;26.57;;;18.10;;
1879;SDS011;49285;49.002;8.390;2024-03-08T08:11:01;25.47;;;16.73;;
1879;SDS011;49285;49.002;8.390;2024-03-08T08:13:27;28.70;;;17.80;;
1879;SDS011;49285;49.002;8.390;2024-03-08T08:15:57;25.70;;;17.43;;
1879;SDS011;49285;49.002;8.390;2024-03-08T08:18:23;27.30;;;17.40;;
1879;SDS011;49285;49.002;8.390;2024-03-08T08:20:50;25.57;;;17.13;;
1879;SDS011;49285;49.002;8.390;2024-03-08T08:23:17;25.90;;;17.70;;
1879;SDS011;49285;49.002;8.390;2024-03-08T08:25:44;26.10;;;18.07;;
1879;SDS011;49285;49.002;8.390;2024-03-08T08:28:10;25.70;;;17.67;;
1879;SDS011;49285;49.002;8.390;2024-03-08T08:30:37;27.90;;;19.30;;
1879;SDS011;49285;49.002;8.390;2024-03-08T08:33:03;23.80;;;16.77;;
1879;SDS011;49285;49.002;8.390;2024-03-08T08:35:30;27.17;;;18.37;;
1879;SDS011;49285;49.002;8.390;2024-03-08T08:37:56;23.93;;;18.07;;
1879;SDS011;49285;49.002;8.390;2024-03-08T08:40:23;26.37;;;16.83;;
1879;SDS011;49285;49.002;8.390;2024-03-08T08:42:50;26.57;;;17.73;;
1879;SDS011;49285;49.002;8.390;2024-03-08T08:45:18;22.73;;;16.70;;
1879;SDS011;49285;49.002;8.390;2024-03-08T08:47:44;24.87;;;17.97;;
1879;SDS011;49285;49.002;8.390;2024-03-08T08:50:10;24.70;;;16.97;;
1879;SDS011;49285;49.002;8.390;2024-03-08T08:52:39;23.30;;;17.17;;
1879;SDS011;49285;49.002;8.390;2024-03-08T08:55:05;23.00;;;16.50;;
1879;SDS011;49285;49.002;8.390;2024-03-08T08:57:31;25.93;;;17.30;;
1879;SDS011;49285;49.002;8.390;2024-03-08T08:59:58;25.70;;;17.47;;
1879;SDS011;49285;49.002;8.390;2024-03-08T09:02:25;27.47;;;17.77;;
1879;SDS011;49285;49.002;8.390;2024-03-08T09:04:51;26.00;;;17.03;;
1879;SDS011;49285;49.002;8.390;2024-03-08T09:07:17;27.87;;;18.60;;
1879;SDS011;49285;49.002;8.390;2024-03-08T09:09:44;25.73;;;16.90;;
1879;SDS011;49285;49.002;8.390;2024-03-08T09:12:10;21.53;;;16.60;;
1879;SDS011;49285;49.002;8.390;2024-03-08T09:14:41;26.47;;;17.43;;
1879;SDS011;49285;49.002;8.390;2024-03-08T09:17:07;29.50;;;16.87;;
1879;SDS011;49285;49.002;8.390;2024-03-08T09:19:33;26.13;;;17.80;;
1879;SDS011;49285;49.002;8.390;2024-03-08T09:22:02;29.77;;;18.60;;
1879;SDS011;49285;49.002;8.390;2024-03-08T09:24:29;26.40;;;18.17;;
1879;SDS011;49285;49.002;8.390;2024-03-08T09:26:55;26.47;;;17.70;;
1879;SDS011;49285;49.002;8.390;2024-03-08T09:29:23;28.53;;;18.17;;
1879;SDS011;49285;49.002;8.390;2024-03-08T09:31:49;26.40;;;17.93;;
1879;SDS011;49285;49.002;8.390;2024-03-08T09:34:15;24.73;;;15.73;;
1879;SDS011;49285;49.002;8.390;2024-03-08T09:36:40;24.53;;;17.27;;
1879;SDS011;49285;49.002;8.390;2024-03-08T09:39:06;23.00;;;15.97;;
1879;SDS011;49285;49.002;8.390;2024-03-08T09:41:32;23.97;;;15.93;;
1879;SDS011;49285;49.002;8.390;2024-03-08T09:43:59;21.60;;;16.07;;
1879;SDS011;49285;49.002;8.390;2024-03-08T09:46:25;22.53;;;16.40;;
1879;SDS011;49285;49.002;8.390;2024-03-08T09:48:52;27.10;;;17.07;;
1879;SDS011;49285;49.002;8.390;2024-03-08T09:51:20;25.70;;;17.07;;
1879;SDS011;49285;49.002;8.390;2024-03-08T09:53:49;21.93;;;16.10;;
1879;SDS011;49285;49.002;8.390;2024-03-08T09:56:15;26.97;;;16.47;;
1879;SDS011;49285;49.002;8.390;2024-03-08T09:58:40;23.13;;;15.90;;
1879;SDS011;49285;49.002;8.390;2024-03-08T10:01:24;22.63;;;15.33;;
1879;SDS011;49285;49.002;8.390;2024-03-08T10:03:51;22.87;;;15.27;;
1879;SDS011;49285;49.002;8.390;2024-03-08T10:06:20;23.17;;;15.87;;
1879;SDS011;49285;49.002;8.390;2024-03-08T10:08:48;21.57;;;17.10;;
1879;SDS011;49285;49.002;8.390;2024-03-08T10:11:14;24.60;;;16.33;;
1879;SDS011;49285;49.002;8.390;2024-03-08T10:13:40;26.27;;;18.10;;
1879;SDS011;49285;49.002;8.390;2024-03-08T10:16:06;24.80;;;16.83;;
1879;SDS011;49285;49.002;8.390;2024-03-08T10:18:33;23.43;;;16.53;;
1879;SDS011;49285;49.002;8.390;2024-03-08T10:21:06;22.27;;;16.30;;
1879;SDS011;49285;49.002;8.390;2024-03-08T10:23:34;21.33;;;16.10;;
1879;SDS011;49285;49.002;8.390;2024-03-08T10:28:46;21.77;;;16.67;;
1879;SDS011;49285;49.002;8.390;2024-03-08T10:31:13;23.23;;;15.30;;
1879;SDS011;49285;49.002;8.390;2024-03-08T10:33:42;20.27;;;15.23;;
1879;SDS011;49285;49.002;8.390;2024-03-08T10:36:09;22.50;;;15.20;;
1879;SDS011;49285;49.002;8.390;2024-03-08T10:38:39;20.33;;;15.50;;
1879;SDS011;49285;49.002;8.390;2024-03-08T10:41:07;19.70;;;16.10;;
1879;SDS011;49285;49.002;8.390;2024-03-08T10:48:43;21.60;;;16.70;;
1879;SDS011;49285;49.002;8.390;2024-03-08T10:51:10;24.63;;;16.10;;
1879;SDS011;49285;49.002;8.390;2024-03-08T10:53:37;22.20;;;16.10;;
1879;SDS011;49285;49.002;8.390;2024-03-08T10:56:07;19.80;;;14.10;;
1879;SDS011;49285;49.002;8.390;2024-03-08T10:58:34;21.63;;;16.17;;
1879;SDS011;49285;49.002;8.390;2024-03-08T11:01:01;18.07;;;14.47;;
1879;SDS011;49285;49.002;8.390;2024-03-08T11:06:06;24.00;;;16.30;;
1879;SDS011;49285;49.002;8.390;2024-03-08T11:08:42;21.43;;;16.00;;
1879;SDS011;49285;49.002;8.390;2024-03-08T11:11:25;22.03;;;15.97;;
1879;SDS011;49285;49.002;8.390;2024-03-08T11:13:59;19.20;;;15.30;;
1879;SDS011;49285;49.002;8.390;2024-03-08T11:21:54;18.20;;;14.83;;
1879;SDS011;49285;49.002;8.390;2024-03-08T11:24:25;19.80;;;14.73;;
1879;SDS011;49285;49.002;8.390;2024-03-08T11:26:54;20.27;;;14.53;;
1879;SDS011;49285;49.002;8.390;2024-03-08T11:32:08;19.50;;;15.10;;
1879;SDS011;49285;49.002;8.390;2024-03-08T11:34:42;21.73;;;15.30;;
1879;SDS011;49285;49.002;8.390;2024-03-08T11:37:16;19.97;;;14.10;;
1879;SDS011;49285;49.002;8.390;2024-03-08T11:39:49;19.83;;;15.03;;
1879;SDS011;49285;49.002;8.390;2024-03-08T11:42:16;17.80;;;15.33;;
1879;SDS011;49285;49.002;8.390;2024-03-08T11:44:43;21.70;;;16.87;;
1879;SDS011;49285;49.002;8.390;2024-03-08T11:47:12;22.27;;;16.07;;
1879;SDS011;49285;49.002;8.390;2024-03-08T11:49:39;18.83;;;14.57;;
1879;SDS011;49285;49.002;8.390;2024-03-08T11:52:10;19.70;;;16.07;;
1879;SDS011;49285;49.002;8.390;2024-03-08T11:54:43;17.53;;;15.03;;
1879;SDS011;49285;49.002;8.390;2024-03-08T11:57:22;19.27;;;16.30;;
1879;SDS011;49285;49.002;8.390;2024-03-08T11:59:52;20.90;;;16.20;;
1879;SDS011;49285;49.002;8.390;2024-03-08T12:02:18;18.50;;;15.00;;
1879;SDS011;49285;49.002;8.390;2024-03-08T12:04:47;21.43;;;15.43;;
1879;SDS011;49285;49.002;8.390;2024-03-08T12:07:12;18.60;;;15.30;;
1879;SDS011;49285;49.002;8.390;2024-03-08T12:09:40;18.03;;;14.80;;
1879;SDS011;49285;49.002;8.390;2024-03-08T12:12:11;18.37;;;15.30;;
1879;SDS011;49285;49.002;8.390;2024-03-08T12:14:37;18.77;;;15.23;;
1879;SDS011;49285;49.002;8.390;2024-03-08T12:17:03;18.00;;;14.47;;
1879;SDS011;49285;49.002;8.390;2024-03-08T12:19:30;16.00;;;13.63;;
1879;SDS011;49285;49.002;8.390;2024-03-08T12:21:56;17.43;;;14.63;;
1879;SDS011;49285;49.002;8.390;2024-03-08T12:24:22;19.07;;;15.47;;
1879;SDS011;49285;49.002;8.390;2024-03-08T12:26:48;16.93;;;14.63;;
1879;SDS011;49285;49.002;8.390;2024-03-08T12:29:37;16.70;;;14.90;;
1879;SDS011;49285;49.002;8.390;2024-03-08T12:32:04;16.83;;;15.13;;
1879;SDS011;49285;49.002;8.390;2024-03-08T12:34:30;17.00;;;15.23;;
1879;SDS011;49285;49.002;8.390;2024-03-08T12:36:57;16.60;;;15.00;;
1879;SDS011;49285;49.002;8.390;2024-03-08T12:39:23;16.70;;;15.00;;
1879;SDS011;49285;49.002;8.390;2024-03-08T12:41:52;16.33;;;14.80;;
1879;SDS011;49285;49.002;8.390;2024-03-08T12:44:24;17.27;;;15.47;;
1879;SDS011;49285;49.002;8.390;2024-03-08T12:46:51;15.57;;;14.17;;
1879;SDS011;49285;49.002;8.390;2024-03-08T12:49:18;18.40;;;16.70;;
1879;SDS011;49285;49.002;8.390;2024-03-08T12:51:47;18.83;;;17.03;;
1879;SDS011;49285;49.002;8.390;2024-03-08T12:54:12;18.47;;;16.67;;
1879;SDS011;49285;49.002;8.390;2024-03-08T12:56:38;17.93;;;16.30;;
1879;SDS011;49285;49.002;8.390;2024-03-08T12:59:05;17.53;;;15.83;;
1879;SDS011;49285;49.002;8.390;2024-03-08T13:01:32;21.70;;;19.70;;
1879;SDS011;49285;49.002;8.390;2024-03-08T13:03:58;16.70;;;14.90;;
1879;SDS011;49285;49.002;8.390;2024-03-08T13:06:25;17.37;;;15.77;;
1879;SDS011;49285;49.002;8.390;2024-03-08T13:08:51;18.93;;;17.03;;
1879;SDS011;49285;49.002;8.390;2024-03-08T13:11:20;16.63;;;15.03;;
1879;SDS011;49285;49.002;8.390;2024-03-08T13:13:46;16.50;;;15.00;;
1879;SDS011;49285;49.002;8.390;2024-03-08T13:16:12;17.93;;;16.23;;
1879;SDS011;49285;49.002;8.390;2024-03-08T13:18:44;17.73;;;16.03;;
1879;SDS011;49285;49.002;8.390;2024-03-08T13:21:10;17.23;;;15.60;;
1879;SDS011;49285;49.002;8.390;2024-03-08T13:23:38;16.77;;;15.17;;
1879;SDS011;49285;49.002;8.390;2024-03-08T13:26:08;16.47;;;14.87;;
1879;SDS011;49285;49.002;8.390;2024-03-08T13:28:40;16.73;;;15.03;;
1879;SDS011;49285;49.002;8.390;2024-03-08T13:31:19;17.27;;;15.47;;
1879;SDS011;49285;49.002;8.390;2024-03-08T13:33:48;16.87;;;15.00;;
1879;SDS011;49285;49.002;8.390;2024-03-08T13:36:14;17.30;;;15.53;;
1879;SDS011;49285;49.002;8.390;2024-03-08T13:38:43;16.80;;;15.30;;
1879;SDS011;49285;49.002;8.390;2024-03-08T13:41:11;16.40;;;14.83;;
1879;SDS011;49285;49.002;8.390;2024-03-08T13:43:39;18.30;;;16.50;;
1879;SDS011;49285;49.002;8.390;2024-03-08T13:46:17;15.17;;;13.67;;
1879;SDS011;49285;49.002;8.390;2024-03-08T13:48:42;16.43;;;14.83;;
1879;SDS011;49285;49.002;8.390;2024-03-08T13:51:08;17.13;;;15.60;;
1879;SDS011;49285;49.002;8.390;2024-03-08T13:53:40;15.93;;;14.37;;
1879;SDS011;49285;49.002;8.390;2024-03-08T13:56:06;15.33;;;13.87;;
1879;SDS011;49285;49.002;8.390;2024-03-08T13:58:35;17.73;;;15.97;;
1879;SDS011;49285;49.002;8.390;2024-03-08T14:01:01;16.57;;;15.07;;
1879;SDS011;49285;49.002;8.390;2024-03-08T14:03:28;16.50;;;14.90;;
1879;SDS011;49285;49.002;8.390;2024-03-08T14:05:54;17.37;;;15.70;;
1879;SDS011;49285;49.002;8.390;2024-03-08T14:08:20;16.37;;;14.77;;
1879;SDS011;49285;49.002;8.390;2024-03-08T14:10:46;15.73;;;14.17;;
1879;SDS011;49285;49.002;8.390;2024-03-08T14:13:14;17.27;;;15.47;;
1879;SDS011;49285;49.002;8.390;2024-03-08T14:15:41;17.73;;;15.70;;
1879;SDS011;49285;49.002;8.390;2024-03-08T14:18:07;17.33;;;15.20;;
1879;SDS011;49285;49.002;8.390;2024-03-08T14:20:32;16.53;;;14.83;;
1879;SDS011;49285;49.002;8.390;2024-03-08T14:22:58;17.53;;;15.70;;
1879;SDS011;49285;49.002;8.390;2024-03-08T14:25:24;17.00;;;15.27;;
1879;SDS011;49285;49.002;8.390;2024-03-08T14:27:50;17.40;;;15.70;;
1879;SDS011;49285;49.002;8.390;2024-03-08T14:30:23;17.33;;;15.33;;
1879;SDS011;49285;49.002;8.390;2024-03-08T14:33:06;18.50;;;16.00;;
1879;SDS011;49285;49.002;8.390;2024-03-08T14:35:35;17.60;;;15.83;;
1879;SDS011;49285;49.002;8.390;2024-03-08T14:38:01;17.10;;;15.10;;
1879;SDS011;49285;49.002;8.390;2024-03-08T14:40:27;18.63;;;15.60;;
1879;SDS011;49285;49.002;8.390;2024-03-08T14:42:55;19.77;;;16.40;;
1879;SDS011;49285;49.002;8.390;2024-03-08T14:45:21;17.03;;;15.07;;
1879;SDS011;49285;49.002;8.390;2024-03-08T14:47:49;19.20;;;15.77;;
1879;SDS011;49285;49.002;8.390;2024-03-08T14:50:17;22.37;;;15.97;;
1879;SDS011;49285;49.002;8.390;2024-03-08T14:52:44;20.30;;;15.30;;